createdAt,value
2019-02-06T00:00:41.786Z,11.68
2019-02-06T00:03:22.839Z,11.50
2019-02-06T00:06:03.899Z,10.68
2019-02-06T00:08:44.454Z,11.53
2019-02-06T00:11:25.304Z,11.60
2019-02-06T00:14:05.998Z,10.55
2019-02-06T00:16:46.648Z,11.10
2019-02-06T00:19:27.047Z,10.58
2019-02-06T00:22:08.004Z,10.08
2019-02-06T00:24:48.811Z,9.78
2019-02-06T00:27:29.391Z,10.43
2019-02-06T00:30:10.115Z,10.30
2019-02-06T00:32:50.818Z,9.93
2019-02-06T00:35:31.387Z,9.00
2019-02-06T00:38:12.017Z,10.05
2019-02-06T00:46:35.658Z,10.20
2019-02-06T00:54:52.991Z,10.00
2019-02-06T01:00:20.368Z,10.65
2019-02-06T01:33:40.583Z,11.20
2019-02-06T01:36:21.205Z,11.08
2019-02-06T01:39:01.983Z,11.12
2019-02-06T01:41:42.519Z,10.20
2019-02-06T01:44:23.094Z,11.10
2019-02-06T01:47:03.394Z,10.55
2019-02-06T01:49:44.817Z,10.88
2019-02-06T01:52:25.438Z,10.48
2019-02-06T01:55:06.878Z,10.28
2019-02-06T01:57:47.942Z,10.38
2019-02-06T02:00:28.594Z,10.75
2019-02-06T02:03:09.165Z,9.83
2019-02-06T02:06:01.425Z,10.72
2019-02-06T02:08:34.038Z,11.03
2019-02-06T02:11:14.785Z,11.63
2019-02-06T02:13:55.371Z,11.22
2019-02-06T02:16:36.270Z,10.93
2019-02-06T02:19:17.930Z,11.08
2019-02-06T02:21:59.071Z,10.50
2019-02-06T02:24:39.574Z,11.10
2019-02-06T02:27:20.600Z,11.28
2019-02-06T02:30:01.813Z,11.30
2019-02-06T02:32:42.378Z,11.28
2019-02-06T02:35:23.248Z,11.57
2019-02-06T02:38:04.135Z,12.23
2019-02-06T02:40:44.410Z,11.78
2019-02-06T02:43:25.272Z,10.68
2019-02-06T02:46:06.179Z,11.65
2019-02-06T02:48:46.594Z,12.37
2019-02-06T02:51:27.378Z,11.50
2019-02-06T02:54:08.063Z,11.05
2019-02-06T02:56:49.095Z,11.57
2019-02-06T02:59:30.420Z,11.68
2019-02-06T03:05:26.518Z,11.63
2019-02-06T03:08:06.910Z,11.53
2019-02-06T03:10:47.658Z,10.98
2019-02-06T03:13:28.467Z,10.70
2019-02-06T03:16:09.183Z,11.05
2019-02-06T03:18:49.813Z,11.68
2019-02-06T03:21:30.879Z,10.05
2019-02-06T03:24:11.727Z,10.20
2019-02-06T03:26:52.070Z,10.25
2019-02-06T03:29:32.812Z,9.93
2019-02-06T03:32:13.548Z,11.25
2019-02-06T03:34:54.056Z,11.33
2019-02-06T03:37:34.905Z,10.65
2019-02-06T03:40:15.339Z,10.72
2019-02-06T03:42:56.143Z,9.58
2019-02-06T03:45:36.807Z,10.38
2019-02-06T03:48:17.999Z,11.22
2019-02-06T03:50:58.803Z,11.22
2019-02-06T03:53:39.229Z,12.07
2019-02-06T03:56:19.862Z,10.90
2019-02-06T03:59:01.394Z,12.63
2019-02-06T04:01:42.753Z,11.50
2019-02-06T04:04:24.147Z,10.58
2019-02-06T04:07:03.074Z,11.00
2019-02-06T04:09:51.335Z,10.72
2019-02-06T04:12:39.178Z,11.38
2019-02-06T04:15:20.208Z,11.15
2019-02-06T04:18:00.463Z,11.18
2019-02-06T04:20:40.983Z,10.95
2019-02-06T04:23:21.767Z,11.68
2019-02-06T04:26:02.527Z,11.73
2019-02-06T04:28:42.850Z,12.00
2019-02-06T04:31:23.655Z,12.00
2019-02-06T04:34:04.397Z,12.88
2019-02-06T04:36:45.552Z,12.75
2019-02-06T04:42:10.020Z,12.63
2019-02-06T04:47:33.096Z,12.33
2019-02-06T04:50:16.923Z,11.88
2019-02-06T04:55:43.182Z,11.90
2019-02-06T05:00:58.090Z,11.50
2019-02-06T05:03:26.975Z,11.97
2019-02-06T05:05:55.867Z,11.43
2019-02-06T05:08:24.418Z,12.30
2019-02-06T05:10:53.387Z,12.20
2019-02-06T05:13:22.335Z,11.78
2019-02-06T05:15:50.912Z,12.90
2019-02-06T05:18:19.811Z,12.73
2019-02-06T05:20:48.790Z,12.03
2019-02-06T05:23:17.696Z,11.73
2019-02-06T05:25:46.599Z,12.03
2019-02-06T05:28:18.038Z,13.00
2019-02-06T05:30:45.474Z,11.70
2019-02-06T05:33:14.054Z,11.65
2019-02-06T05:35:42.874Z,12.70
2019-02-06T05:38:11.431Z,11.57
2019-02-06T05:40:40.341Z,12.93
2019-02-06T05:43:09.235Z,12.80
2019-02-06T05:45:37.801Z,12.13
2019-02-06T05:48:06.728Z,12.15
2019-02-06T05:50:35.276Z,11.55
2019-02-06T05:53:04.201Z,12.45
2019-02-06T05:55:33.771Z,12.28
2019-02-06T05:58:02.990Z,12.07
2019-02-06T06:00:35.880Z,12.00
2019-02-06T06:03:04.451Z,11.60
2019-02-06T06:05:33.065Z,12.47
2019-02-06T06:08:02.045Z,11.90
2019-02-06T06:10:30.608Z,10.63
2019-02-06T06:12:59.513Z,12.43
2019-02-06T06:15:28.399Z,11.50
2019-02-06T06:17:56.966Z,12.55
2019-02-06T06:20:25.928Z,11.28
2019-02-06T06:22:54.874Z,11.53
2019-02-06T06:25:23.762Z,11.60
2019-02-06T06:27:52.323Z,12.28
2019-02-06T06:30:20.930Z,12.25
2019-02-06T06:32:49.819Z,12.00
2019-02-06T06:35:18.390Z,12.15
2019-02-06T06:37:57.683Z,12.70
2019-02-06T06:40:19.669Z,13.38
2019-02-06T06:42:48.972Z,12.58
2019-02-06T06:45:19.116Z,11.97
2019-02-06T06:47:47.745Z,11.73
2019-02-06T06:50:18.858Z,12.37
2019-02-06T06:52:47.475Z,12.88
2019-02-06T06:55:16.194Z,12.80
2019-02-06T06:57:45.160Z,11.85
2019-02-06T07:00:25.660Z,12.25
2019-02-06T07:02:54.427Z,12.65
2019-02-06T07:05:23.746Z,12.10
2019-02-06T07:07:52.719Z,12.07
2019-02-06T07:10:21.587Z,11.60
2019-02-06T07:12:50.163Z,12.55
2019-02-06T07:15:21.202Z,15.18
2019-02-06T07:17:49.782Z,15.55
2019-02-06T07:20:18.651Z,14.65
2019-02-06T07:22:47.610Z,13.40
2019-02-06T07:25:17.358Z,12.70
2019-02-06T07:27:45.965Z,13.32
2019-02-06T07:30:18.179Z,13.05
2019-02-06T07:32:46.714Z,12.15
2019-02-06T07:35:15.972Z,12.80
2019-02-06T07:37:44.753Z,13.32
2019-02-06T07:40:14.018Z,14.25
2019-02-06T07:42:42.595Z,12.98
2019-02-06T07:45:11.254Z,13.43
2019-02-06T07:47:40.199Z,12.68
2019-02-06T07:50:12.999Z,13.20
2019-02-06T07:52:41.779Z,13.45
2019-02-06T07:55:10.331Z,14.05
2019-02-06T07:57:38.913Z,13.18
2019-02-06T08:00:07.745Z,13.25
2019-02-06T08:02:36.586Z,13.38
2019-02-06T08:05:06.134Z,12.80
2019-02-06T08:07:34.690Z,13.68
2019-02-06T08:10:03.504Z,13.22
2019-02-06T08:12:32.638Z,12.70
2019-02-06T08:15:01.530Z,12.35
2019-02-06T08:17:30.158Z,13.40
2019-02-06T08:19:59.300Z,13.93
2019-02-06T08:22:27.939Z,12.58
2019-02-06T08:24:56.940Z,14.15
2019-02-06T08:27:26.360Z,15.32
2019-02-06T08:29:55.218Z,16.55
2019-02-06T08:32:23.791Z,18.30
2019-02-06T08:34:52.761Z,14.70
2019-02-06T08:37:21.367Z,13.98
2019-02-06T08:39:50.298Z,15.35
2019-02-06T08:42:19.079Z,14.90
2019-02-06T08:44:47.843Z,12.55
2019-02-06T08:47:16.738Z,16.40
2019-02-06T08:49:45.653Z,15.93
2019-02-06T08:52:14.506Z,18.70
2019-02-06T08:54:43.090Z,18.55
2019-02-06T08:57:11.722Z,16.97
2019-02-06T08:59:40.571Z,19.07
2019-02-06T09:02:09.099Z,16.85
2019-02-06T09:04:37.982Z,17.37
2019-02-06T09:07:06.874Z,19.07
2019-02-06T09:09:35.483Z,18.45
2019-02-06T09:12:04.106Z,18.98
2019-02-06T09:14:32.703Z,18.15
2019-02-06T09:17:01.597Z,17.65
2019-02-06T09:19:30.163Z,20.32
2019-02-06T09:21:59.090Z,22.02
2019-02-06T09:24:27.626Z,22.10
2019-02-06T09:26:56.239Z,20.27
2019-02-06T09:29:24.810Z,21.68
2019-02-06T09:31:53.906Z,21.50
2019-02-06T09:34:22.834Z,19.73
2019-02-06T09:36:51.725Z,21.40
2019-02-06T09:39:20.927Z,22.27
2019-02-06T09:41:49.823Z,21.37
2019-02-06T09:44:18.690Z,22.48
2019-02-06T09:46:47.270Z,21.95
2019-02-06T09:49:16.527Z,21.10
2019-02-06T09:51:45.131Z,22.58
2019-02-06T09:54:14.354Z,21.90
2019-02-06T09:56:43.262Z,22.77
2019-02-06T09:59:12.106Z,23.07
2019-02-06T10:01:40.709Z,22.00
2019-02-06T10:04:10.026Z,23.07
2019-02-06T10:06:38.606Z,21.90
2019-02-06T10:09:08.955Z,22.10
2019-02-06T10:11:37.498Z,22.37
2019-02-06T10:14:06.079Z,23.90
2019-02-06T10:16:35.174Z,23.47
2019-02-06T10:19:04.415Z,23.10
2019-02-06T10:21:32.955Z,23.30
2019-02-06T10:24:02.185Z,22.60
2019-02-06T10:26:30.735Z,24.23
2019-02-06T10:28:59.331Z,23.45
2019-02-06T10:31:27.903Z,23.95
2019-02-06T10:33:56.826Z,25.45
2019-02-06T10:36:26.087Z,24.30
2019-02-06T10:38:54.999Z,24.67
2019-02-06T10:41:23.908Z,24.98
2019-02-06T10:43:52.770Z,25.45
2019-02-06T10:46:21.350Z,25.72
2019-02-06T10:48:50.274Z,26.02
2019-02-06T10:51:18.822Z,26.33
2019-02-06T10:53:47.826Z,25.15
2019-02-06T10:56:17.051Z,25.62
2019-02-06T10:58:45.612Z,26.00
2019-02-06T11:01:33.446Z,26.33
2019-02-06T11:04:23.506Z,28.20
2019-02-06T11:07:11.343Z,26.73
2019-02-06T11:09:59.418Z,27.22
2019-02-06T11:12:47.519Z,26.10
2019-02-06T11:15:35.633Z,27.65
2019-02-06T11:18:23.811Z,27.67
2019-02-06T11:21:11.946Z,27.50
2019-02-06T11:24:01.510Z,27.75
2019-02-06T11:26:49.355Z,26.70
2019-02-06T11:29:37.194Z,27.40
2019-02-06T11:32:25.550Z,27.10
2019-02-06T11:35:13.415Z,28.38
2019-02-06T11:38:01.487Z,28.90
2019-02-06T11:40:49.662Z,28.92
2019-02-06T11:43:37.750Z,29.95
2019-02-06T11:46:25.586Z,27.90
2019-02-06T11:52:10.984Z,28.90
2019-02-06T11:54:53.211Z,28.57
2019-02-06T11:57:33.984Z,29.55
2019-02-06T12:00:16.106Z,28.70
2019-02-06T12:02:57.634Z,28.20
2019-02-06T12:05:37.976Z,28.90
2019-02-06T12:08:18.782Z,30.10
2019-02-06T12:10:59.617Z,28.40
2019-02-06T12:13:40.064Z,28.27
2019-02-06T12:16:20.795Z,28.27
2019-02-06T12:19:05.775Z,28.98
2019-02-06T12:21:46.615Z,29.67
2019-02-06T12:24:27.335Z,28.05
2019-02-06T12:27:08.608Z,28.52
2019-02-06T12:32:35.634Z,29.27
2019-02-06T12:35:17.019Z,30.20
2019-02-06T12:37:57.643Z,30.57
2019-02-06T12:43:25.035Z,29.10
2019-02-06T12:46:06.075Z,29.32
2019-02-06T12:54:25.507Z,29.42
2019-02-06T12:57:09.777Z,29.20
2019-02-06T13:16:36.155Z,30.02
2019-02-06T13:25:06.198Z,27.87
2019-02-06T13:27:54.379Z,29.10
2019-02-06T13:30:35.742Z,28.40
2019-02-06T13:36:07.474Z,27.90
2019-02-06T13:38:48.187Z,28.65
2019-02-06T13:41:29.136Z,27.52
2019-02-06T13:44:10.059Z,28.47
2019-02-06T13:46:53.317Z,26.93
2019-02-06T13:49:33.625Z,29.82
2019-02-06T13:52:14.867Z,28.85
2019-02-06T13:54:55.418Z,29.05
2019-02-06T13:57:35.994Z,28.32
2019-02-06T14:00:16.465Z,29.30
2019-02-06T14:02:57.182Z,28.80
2019-02-06T14:05:37.711Z,27.85
2019-02-06T14:08:18.143Z,27.42
2019-02-06T14:11:00.890Z,26.73
2019-02-06T14:13:41.346Z,28.57
2019-02-06T14:16:22.382Z,28.30
2019-02-06T14:19:03.836Z,28.60
2019-02-06T14:21:44.326Z,27.73
2019-02-06T14:24:25.495Z,28.60
2019-02-06T14:27:09.147Z,28.87
2019-02-06T14:30:16.305Z,27.70
2019-02-06T14:33:23.702Z,28.05
2019-02-06T14:36:31.111Z,27.75
2019-02-06T14:39:38.270Z,28.83
2019-02-06T14:42:29.063Z,28.05
2019-02-06T14:45:36.239Z,27.13
2019-02-06T14:48:43.421Z,27.85
2019-02-06T14:51:50.910Z,27.87
2019-02-06T14:54:32.124Z,28.77
2019-02-06T14:57:12.882Z,29.07
2019-02-06T14:59:53.719Z,28.65
2019-02-06T15:02:34.153Z,28.60
2019-02-06T15:05:14.783Z,29.67
2019-02-06T15:07:55.794Z,29.30
2019-02-06T15:10:36.920Z,29.12
2019-02-06T15:13:17.691Z,29.23
2019-02-06T15:15:58.481Z,28.70
2019-02-06T15:18:39.063Z,28.83
2019-02-06T15:21:20.600Z,29.18
2019-02-06T15:24:01.350Z,29.00
2019-02-06T15:26:42.520Z,27.45
2019-02-06T15:29:23.811Z,29.45
2019-02-06T15:32:05.151Z,30.37
2019-02-06T15:34:45.398Z,31.15
2019-02-06T15:37:26.187Z,30.05
2019-02-06T15:40:06.782Z,30.92
2019-02-06T15:42:48.024Z,28.02
2019-02-06T15:45:29.223Z,30.02
2019-02-06T15:48:10.899Z,29.98
2019-02-06T15:50:52.003Z,29.30
2019-02-06T15:53:32.914Z,30.80
2019-02-06T15:56:13.771Z,30.35
2019-02-06T16:01:36.589Z,29.32
2019-02-06T16:04:47.911Z,29.12
2019-02-06T16:07:55.316Z,29.40
2019-02-06T16:11:02.486Z,29.05
2019-02-06T16:14:05.195Z,29.82
2019-02-06T16:17:12.355Z,30.82
2019-02-06T16:20:19.794Z,28.83
2019-02-06T16:23:26.947Z,28.05
2019-02-06T16:26:34.147Z,29.27
2019-02-06T16:29:41.538Z,29.50
2019-02-06T16:32:48.944Z,29.02
2019-02-06T16:35:56.560Z,30.32
2019-02-06T16:38:52.378Z,30.02
2019-02-06T16:41:53.341Z,30.20
2019-02-06T16:44:42.510Z,29.30
2019-02-06T16:47:45.811Z,29.98
2019-02-06T16:53:11.327Z,31.20
2019-02-06T16:55:51.924Z,30.92
2019-02-06T16:58:35.073Z,30.55
2019-02-06T17:01:35.666Z,29.45
2019-02-06T17:04:49.188Z,31.50
2019-02-06T17:07:52.529Z,29.23
2019-02-06T17:10:44.974Z,29.72
2019-02-06T17:13:50.367Z,31.02
2019-02-06T17:16:55.082Z,30.35
2019-02-06T17:19:48.618Z,30.97
2019-02-06T17:22:33.801Z,32.15
2019-02-06T17:25:31.861Z,30.97
2019-02-06T17:28:57.578Z,34.27
2019-02-06T17:32:14.757Z,33.48
2019-02-06T17:35:10.023Z,32.88
2019-02-06T17:38:07.447Z,30.52
2019-02-06T17:41:06.922Z,29.15
2019-02-06T17:44:14.311Z,30.75
2019-02-06T17:47:20.522Z,30.55
2019-02-06T17:50:49.053Z,32.38
2019-02-06T17:53:22.861Z,31.17
2019-02-06T17:55:51.944Z,30.72
2019-02-06T17:58:21.139Z,31.30
2019-02-06T18:01:17.167Z,34.70
2019-02-06T18:04:04.526Z,34.48
2019-02-06T18:06:33.134Z,35.30
2019-02-06T18:09:02.006Z,33.08
2019-02-06T18:11:30.927Z,30.65
2019-02-06T18:13:59.519Z,30.52
2019-02-06T18:16:28.733Z,31.52
2019-02-06T18:18:57.944Z,31.30
2019-02-06T18:21:26.538Z,31.12
2019-02-06T18:23:55.078Z,31.12
2019-02-06T18:26:23.990Z,30.88
2019-02-06T18:28:52.808Z,31.25
2019-02-06T18:31:21.954Z,33.02
2019-02-06T18:33:50.885Z,34.43
2019-02-06T18:36:19.866Z,32.85
2019-02-06T18:38:49.513Z,33.15
2019-02-06T18:41:18.373Z,33.92
2019-02-06T18:43:47.258Z,36.53
2019-02-06T18:46:16.667Z,33.73
2019-02-06T18:48:45.906Z,35.28
2019-02-06T18:51:15.167Z,40.15
2019-02-06T18:53:44.242Z,38.85
2019-02-06T18:56:12.849Z,40.10
2019-02-06T18:58:41.735Z,38.95
2019-02-06T19:01:10.536Z,37.63
2019-02-06T19:03:42.389Z,36.50
2019-02-06T19:06:11.371Z,34.23
2019-02-06T19:08:40.323Z,34.05
2019-02-06T19:11:09.031Z,32.33
2019-02-06T19:13:37.938Z,36.75
2019-02-06T19:16:06.511Z,39.73
2019-02-06T19:18:37.203Z,34.98
2019-02-06T19:21:05.860Z,36.03
2019-02-06T19:23:34.926Z,33.90
2019-02-06T19:26:04.042Z,28.52
2019-02-06T19:28:32.578Z,30.08
2019-02-06T19:31:01.174Z,30.15
2019-02-06T19:33:29.757Z,30.65
2019-02-06T19:35:58.649Z,30.50
2019-02-06T19:38:27.222Z,30.88
2019-02-06T19:40:56.462Z,31.70
2019-02-06T19:43:25.022Z,30.52
2019-02-06T19:45:53.945Z,30.17
2019-02-06T19:48:22.538Z,29.32
2019-02-06T19:50:51.651Z,29.95
2019-02-06T19:53:21.072Z,30.85
2019-02-06T19:55:50.180Z,28.07
2019-02-06T19:58:19.227Z,31.33
2019-02-06T20:00:48.262Z,29.90
2019-02-06T20:03:16.866Z,31.33
2019-02-06T20:05:45.442Z,29.60
2019-02-06T20:08:14.489Z,30.92
2019-02-06T20:10:45.546Z,31.37
2019-02-06T20:13:14.806Z,30.27
2019-02-06T20:15:43.461Z,30.43
2019-02-06T20:18:12.798Z,30.17
2019-02-06T20:20:41.691Z,29.82
2019-02-06T20:23:10.254Z,28.02
2019-02-06T20:25:39.159Z,31.52
2019-02-06T20:28:07.722Z,31.37
2019-02-06T20:30:36.825Z,29.98
2019-02-06T20:33:06.149Z,28.98
2019-02-06T20:35:35.210Z,29.10
2019-02-06T20:38:03.800Z,29.42
2019-02-06T20:40:35.048Z,28.47
2019-02-06T20:43:03.968Z,28.12
2019-02-06T20:45:32.664Z,27.98
2019-02-06T20:48:01.620Z,27.37
2019-02-06T20:50:31.706Z,27.25
2019-02-06T20:53:00.968Z,27.90
2019-02-06T20:55:29.715Z,29.07
2019-02-06T20:57:58.304Z,27.73
2019-02-06T21:00:29.091Z,29.60
2019-02-06T21:02:57.638Z,28.55
2019-02-06T21:05:26.207Z,30.40
2019-02-06T21:07:55.452Z,29.32
2019-02-06T21:10:25.679Z,29.30
2019-02-06T21:12:54.854Z,27.45
2019-02-06T21:15:23.403Z,28.95
2019-02-06T21:17:58.363Z,27.90
2019-02-06T21:20:27.019Z,28.50
2019-02-06T21:22:55.955Z,27.32
2019-02-06T21:25:25.146Z,26.75
2019-02-06T21:27:53.704Z,28.42
2019-02-06T21:30:24.607Z,29.20
2019-02-06T21:32:53.567Z,29.55
2019-02-06T21:35:22.190Z,29.77
2019-02-06T21:37:51.048Z,30.27
2019-02-06T21:40:22.488Z,30.82
2019-02-06T21:42:51.315Z,28.95
2019-02-06T21:45:19.974Z,29.25
2019-02-06T21:47:48.999Z,29.07
2019-02-06T21:50:18.979Z,29.42
2019-02-06T21:52:48.072Z,28.83
2019-02-06T21:55:17.858Z,29.00
2019-02-06T21:57:46.988Z,28.40
2019-02-06T22:00:20.819Z,29.10
2019-02-06T22:02:49.493Z,27.75
2019-02-06T22:05:18.580Z,26.85
2019-02-06T22:07:47.414Z,26.82
2019-02-06T22:10:16.382Z,27.27
2019-02-06T22:12:44.994Z,29.07
2019-02-06T22:15:16.412Z,27.52
2019-02-06T22:17:45.340Z,27.70
2019-02-06T22:20:13.967Z,27.45
2019-02-06T22:22:43.571Z,25.27
2019-02-06T22:25:12.122Z,28.05
2019-02-06T22:27:41.351Z,26.73
2019-02-06T22:30:21.245Z,26.48
2019-02-06T22:32:49.942Z,25.62
2019-02-06T22:35:18.546Z,25.77
2019-02-06T22:37:47.124Z,25.45
2019-02-06T22:40:17.417Z,26.05
2019-02-06T22:42:46.071Z,25.17
2019-02-06T22:45:19.194Z,26.12
2019-02-06T22:47:48.148Z,25.15
2019-02-06T22:50:18.807Z,25.27
2019-02-06T22:52:47.758Z,27.00
2019-02-06T22:55:16.668Z,26.15
2019-02-06T22:57:45.263Z,26.20
2019-02-06T23:00:53.362Z,26.75
2019-02-06T23:03:42.359Z,24.63
2019-02-06T23:06:30.202Z,26.68
2019-02-06T23:09:18.282Z,25.12
2019-02-06T23:12:06.348Z,28.73
2019-02-06T23:14:54.178Z,28.40
2019-02-06T23:17:42.014Z,26.97
2019-02-06T23:20:31.578Z,28.27
2019-02-06T23:23:19.414Z,27.65
2019-02-06T23:26:07.499Z,27.02
2019-02-06T23:28:55.330Z,28.70
2019-02-06T23:31:43.421Z,28.32
2019-02-06T23:34:31.731Z,27.65
2019-02-06T23:37:19.575Z,26.90
2019-02-06T23:40:08.790Z,28.20
2019-02-06T23:42:56.683Z,27.48
2019-02-06T23:45:46.194Z,26.65
2019-02-06T23:48:41.659Z,26.42
2019-02-06T23:51:31.458Z,26.50
2019-02-06T23:54:12.247Z,27.15
2019-02-06T23:56:53.142Z,25.85
2019-02-06T23:59:33.611Z,25.95
